createdAt,value
2023-03-22T00:00:45.516Z,10.43
2023-03-22T00:05:50.616Z,10.07
2023-03-22T00:10:55.637Z,13.23
2023-03-22T00:16:03.466Z,10.00
2023-03-22T00:21:09.375Z,14.73
2023-03-22T00:26:15.791Z,11.55
2023-03-22T00:31:23.489Z,14.43
2023-03-22T00:36:28.800Z,17.90
2023-03-22T00:41:33.875Z,13.48
2023-03-22T00:46:41.526Z,12.73
2023-03-22T00:51:46.860Z,10.80
2023-03-22T00:56:54.549Z,10.40
2023-03-22T01:02:04.448Z,9.32
2023-03-22T01:07:09.432Z,10.70
2023-03-22T01:12:15.318Z,7.90
2023-03-22T01:17:23.295Z,9.77
2023-03-22T01:22:28.424Z,8.30
2023-03-22T01:27:33.407Z,8.18
2023-03-22T01:32:41.890Z,9.23
2023-03-22T01:37:46.904Z,7.90
2023-03-22T01:42:51.980Z,9.77
2023-03-22T01:48:02.779Z,7.45
2023-03-22T01:53:09.270Z,7.55
2023-03-22T01:58:16.279Z,7.80
2023-03-22T02:03:28.836Z,9.65
2023-03-22T02:08:35.122Z,8.73
2023-03-22T02:13:58.768Z,8.43
2023-03-22T02:19:36.559Z,8.13
2023-03-22T02:25:01.822Z,8.60
2023-03-22T02:30:20.841Z,8.13
2023-03-22T02:35:37.182Z,7.53
2023-03-22T02:40:48.486Z,8.13
2023-03-22T02:45:57.733Z,8.00
2023-03-22T02:51:06.815Z,7.72
2023-03-22T02:56:16.432Z,7.25
2023-03-22T03:01:24.534Z,8.07
2023-03-22T03:06:32.155Z,8.40
2023-03-22T03:11:40.190Z,8.23
2023-03-22T03:16:45.334Z,8.90
2023-03-22T03:21:55.487Z,7.93
2023-03-22T03:27:06.059Z,8.82
2023-03-22T03:32:14.597Z,7.50
2023-03-22T03:37:22.978Z,7.82
2023-03-22T03:42:31.843Z,7.38
2023-03-22T03:47:38.019Z,7.82
2023-03-22T03:52:43.260Z,7.82
2023-03-22T03:57:51.058Z,7.38
2023-03-22T04:02:56.149Z,8.05
2023-03-22T04:08:01.273Z,8.20
2023-03-22T04:13:09.238Z,7.90
2023-03-22T04:18:14.332Z,8.52
2023-03-22T04:23:22.690Z,7.57
2023-03-22T04:28:30.322Z,8.48
2023-03-22T04:33:39.574Z,8.00
2023-03-22T04:38:44.734Z,8.15
2023-03-22T04:43:52.466Z,7.80
2023-03-22T04:48:57.552Z,8.52
2023-03-22T04:54:03.122Z,7.93
2023-03-22T04:59:11.114Z,8.25
2023-03-22T05:04:16.633Z,8.48
2023-03-22T05:09:23.462Z,8.52
2023-03-22T05:14:31.535Z,8.40
2023-03-22T05:19:36.686Z,8.43
2023-03-22T05:24:41.799Z,8.02
2023-03-22T05:29:49.962Z,8.15
2023-03-22T05:34:55.151Z,8.75
2023-03-22T05:40:00.066Z,8.88
2023-03-22T05:45:08.430Z,8.10
2023-03-22T05:50:16.894Z,12.45
2023-03-22T05:55:22.627Z,11.05
2023-03-22T06:00:32.216Z,9.98
2023-03-22T06:05:37.628Z,9.80
2023-03-22T06:10:42.890Z,10.02
2023-03-22T06:15:50.708Z,9.23
2023-03-22T06:20:55.751Z,10.63
2023-03-22T06:26:00.787Z,10.38
2023-03-22T06:31:12.958Z,8.95
2023-03-22T06:36:18.074Z,8.88
2023-03-22T06:41:23.104Z,14.23
2023-03-22T06:46:31.014Z,10.52
2023-03-22T06:51:36.580Z,10.18
2023-03-22T06:56:41.754Z,10.40
2023-03-22T07:01:49.372Z,10.07
2023-03-22T07:06:54.462Z,10.80
2023-03-22T07:11:59.487Z,10.05
2023-03-22T07:17:07.261Z,11.02
2023-03-22T07:22:12.426Z,10.25
2023-03-22T07:27:17.435Z,11.10
2023-03-22T07:32:25.181Z,11.40
2023-03-22T07:37:30.316Z,12.20
2023-03-22T07:42:35.338Z,12.73
2023-03-22T07:47:43.159Z,12.60
2023-03-22T07:52:48.685Z,11.23
2023-03-22T07:57:54.201Z,11.73
2023-03-22T08:03:02.146Z,11.95
2023-03-22T08:08:07.373Z,12.13
2023-03-22T08:13:12.345Z,12.43
2023-03-22T08:18:19.958Z,11.80
2023-03-22T08:23:38.482Z,11.98
2023-03-22T08:28:46.289Z,11.88
2023-03-22T08:33:53.876Z,12.55
2023-03-22T08:38:58.860Z,11.73
2023-03-22T08:44:04.001Z,11.10
2023-03-22T08:49:11.651Z,11.60
2023-03-22T08:54:16.750Z,10.77
2023-03-22T08:59:22.025Z,9.82
2023-03-22T09:04:29.930Z,10.70
2023-03-22T09:09:35.045Z,11.05
2023-03-22T09:14:40.076Z,9.85
2023-03-22T09:19:48.080Z,8.98
2023-03-22T09:24:53.049Z,9.57
2023-03-22T09:29:58.112Z,10.40
2023-03-22T09:35:06.546Z,10.43
2023-03-22T09:40:12.172Z,9.60
2023-03-22T09:45:20.135Z,10.27
2023-03-22T09:50:30.140Z,10.05
2023-03-22T09:55:40.291Z,10.95
2023-03-22T10:00:49.241Z,9.18
2023-03-22T10:06:01.133Z,8.93
2023-03-22T10:11:06.686Z,7.82
2023-03-22T10:16:15.679Z,7.90
2023-03-22T10:21:24.090Z,8.20
2023-03-22T10:26:32.247Z,7.77
2023-03-22T10:31:37.755Z,7.60
2023-03-22T10:36:45.957Z,7.70
2023-03-22T10:41:52.154Z,8.40
2023-03-22T10:46:57.648Z,8.95
2023-03-22T10:52:07.385Z,8.82
2023-03-22T10:57:12.389Z,7.97
2023-03-22T11:02:21.998Z,8.02
2023-03-22T11:07:38.024Z,8.50
2023-03-22T11:12:45.497Z,8.50
2023-03-22T11:17:50.781Z,8.60
2023-03-22T11:22:59.394Z,8.05
2023-03-22T11:28:11.812Z,8.13
2023-03-22T11:33:21.541Z,8.95
2023-03-22T11:38:37.840Z,8.73
2023-03-22T11:43:44.658Z,8.60
2023-03-22T11:48:51.436Z,8.27
2023-03-22T11:54:11.300Z,7.80
2023-03-22T11:59:18.389Z,7.95
2023-03-22T12:04:30.958Z,7.00
2023-03-22T12:09:42.914Z,6.53
2023-03-22T12:14:53.045Z,7.65
2023-03-22T12:20:07.097Z,7.25
2023-03-22T12:25:24.184Z,7.55
2023-03-22T12:30:30.648Z,7.45
2023-03-22T12:35:38.209Z,7.07
2023-03-22T12:40:45.902Z,7.05
2023-03-22T12:45:55.157Z,5.95
2023-03-22T12:51:03.364Z,6.22
2023-03-22T12:56:12.674Z,7.13
2023-03-22T13:01:25.855Z,6.80
2023-03-22T13:06:58.324Z,4.72
2023-03-22T13:12:34.517Z,5.38
2023-03-22T13:17:45.757Z,5.15
2023-03-22T13:23:15.588Z,5.75
2023-03-22T13:28:29.746Z,5.38
2023-03-22T13:33:36.437Z,5.47
2023-03-22T13:38:43.844Z,5.78
2023-03-22T13:43:53.632Z,5.47
2023-03-22T13:49:20.683Z,6.03
2023-03-22T13:54:29.865Z,6.97
2023-03-22T14:00:11.487Z,5.70
2023-03-22T14:05:21.043Z,6.32
2023-03-22T14:10:29.967Z,6.85
2023-03-22T14:15:40.782Z,5.20
2023-03-22T14:20:46.287Z,5.18
2023-03-22T14:56:43.386Z,4.63
2023-03-22T15:01:56.148Z,4.43
2023-03-22T15:07:03.589Z,3.70
2023-03-22T15:12:09.218Z,3.30
2023-03-22T15:17:18.351Z,4.20
2023-03-22T15:22:24.438Z,3.17
2023-03-22T15:27:32.848Z,3.83
2023-03-22T15:32:43.741Z,3.45
2023-03-22T15:37:54.718Z,3.95
2023-03-22T15:43:11.572Z,4.00
2023-03-22T15:48:25.939Z,4.53
2023-03-22T15:53:34.969Z,3.85
2023-03-22T15:58:40.110Z,5.30
2023-03-22T16:03:49.314Z,3.72
2023-03-22T16:08:54.613Z,5.72
2023-03-22T16:13:59.906Z,6.57
2023-03-22T16:19:08.471Z,34.85
2023-03-22T16:24:14.699Z,15.80
2023-03-22T16:29:19.903Z,7.15
2023-03-22T16:34:28.011Z,4.88
2023-03-22T16:39:33.068Z,10.07
2023-03-22T16:44:40.462Z,41.25
2023-03-22T16:49:50.287Z,42.97
2023-03-22T16:54:56.617Z,30.77
2023-03-22T17:00:02.898Z,17.48
2023-03-22T17:05:11.972Z,19.73
2023-03-22T17:10:19.376Z,44.30
2023-03-22T17:15:32.847Z,27.40
2023-03-22T17:20:41.391Z,20.25
2023-03-22T17:25:49.163Z,14.90
2023-03-22T17:30:54.792Z,11.82
2023-03-22T17:36:02.988Z,10.60
2023-03-22T17:41:09.295Z,6.75
2023-03-22T17:46:57.324Z,10.05
2023-03-22T17:51:42.259Z,8.38
2023-03-22T18:02:01.126Z,8.35
2023-03-22T18:07:11.532Z,6.95
2023-03-22T18:17:21.553Z,7.32
2023-03-22T18:22:29.674Z,7.93
2023-03-22T18:27:47.394Z,9.00
2023-03-22T18:33:05.726Z,25.17
2023-03-22T18:38:34.024Z,20.80
2023-03-22T18:43:43.174Z,15.35
2023-03-22T18:48:50.836Z,14.60
2023-03-22T18:53:58.709Z,13.38
2023-03-22T18:59:03.920Z,13.77
2023-03-22T19:04:09.830Z,21.65
2023-03-22T19:09:18.641Z,23.30
2023-03-22T19:15:05.710Z,21.30
2023-03-22T19:19:49.826Z,18.35
2023-03-22T19:24:59.094Z,18.17
2023-03-22T19:30:06.490Z,14.93
2023-03-22T19:35:14.332Z,12.35
2023-03-22T19:41:23.460Z,11.60
2023-03-22T19:45:48.366Z,13.45
2023-03-22T19:50:56.529Z,12.98
2023-03-22T19:56:04.922Z,25.58
2023-03-22T20:01:12.174Z,39.47
2023-03-22T20:06:17.484Z,23.38
2023-03-22T20:11:34.964Z,20.20
2023-03-22T20:17:03.208Z,29.35
2023-03-22T20:22:10.687Z,27.67
2023-03-22T20:27:18.621Z,30.98
2023-03-22T20:32:23.964Z,25.02
2023-03-22T20:37:29.224Z,29.30
2023-03-22T20:42:37.388Z,70.55
2023-03-22T20:47:42.480Z,61.03
2023-03-22T20:52:47.523Z,37.60
2023-03-22T20:57:56.258Z,35.17
2023-03-22T21:03:02.065Z,33.60
2023-03-22T21:08:07.804Z,24.52
2023-03-22T21:13:15.872Z,21.63
2023-03-22T21:18:22.085Z,24.02
2023-03-22T21:23:27.303Z,24.70
2023-03-22T21:28:36.126Z,23.92
2023-03-22T21:33:41.546Z,25.02
2023-03-22T21:38:54.552Z,26.60
2023-03-22T21:44:07.118Z,30.70
2023-03-22T21:49:12.335Z,30.80
2023-03-22T21:54:18.773Z,33.10
2023-03-22T21:59:28.234Z,27.92
2023-03-22T22:04:33.568Z,21.17
2023-03-22T22:09:38.856Z,23.92
2023-03-22T22:14:46.932Z,26.20
2023-03-22T22:19:52.045Z,26.40
2023-03-22T22:24:58.152Z,26.52
2023-03-22T22:30:06.474Z,26.63
2023-03-22T22:35:13.336Z,27.52
2023-03-22T22:40:18.465Z,25.20
2023-03-22T22:45:26.278Z,24.17
2023-03-22T22:50:31.535Z,26.67
2023-03-22T22:55:40.849Z,34.40
2023-03-22T23:00:49.014Z,31.83
2023-03-22T23:05:54.215Z,31.90
2023-03-22T23:11:00.331Z,32.30
2023-03-22T23:16:09.301Z,31.10
2023-03-22T23:21:18.455Z,31.48
2023-03-22T23:26:24.429Z,28.65
2023-03-22T23:31:32.773Z,25.83
2023-03-22T23:36:37.952Z,23.73
2023-03-22T23:41:43.243Z,24.55
2023-03-22T23:46:50.940Z,22.42
2023-03-22T23:51:56.237Z,21.15
2023-03-22T23:57:02.099Z,19.58
